Airfield :
LOGIN :

Register | Disclaimer

   EN    FR    IT 

 










Legend :    VFR   Marginal VFR   IFR   Intensive IFR   Very Intensive IFR
Visi :
Ceiling :
>= 8 km
>= 3000ft
5 to 8 km
1000 to 3000 ft
1500m to 5 km
500 to 1000 ft
800 to 1500m
200 to 500 ft
< 800m
< 200 ft
Symbols :   Thunderstorms  Fog  Heavy snow  Heavy precipitations  Wind > 20 kt
SIGMETs :     Misc.  Thunderstorms  Icing  Turbulence  Mountain Waves  Volcanic Ashes






- Airport Elevation : 53 ft
- IATA code : HAM


EDDH - Hamburg

CURRENT METAR :
  • 061620Z 21016KT 4800 -RADZ BKN006 06/05 Q1001 TEMPO 22015G25KT 6000

EXPIRED METARs :
  • 061550Z 21018KT 6000 -RADZ BKN006 06/05 Q1002 TEMPO 22015G25KT 4500
  • 061520Z 21016KT 4400 -RADZ BR BKN006 06/05 Q1002 TEMPO 22015G25KT 5000
  • 061450Z 21018KT 4800 -DZ BR BKN006 06/05 Q1002 TEMPO 22015G25KT 5000
  • 061420Z 21018KT 4600 -DZ BR BKN006 06/05 Q1002 TEMPO 22015G25KT 5000
  • 061350Z 21018KT 5000 -DZ BR BKN006 06/05 Q1003 TEMPO 22020G30KT 3500

TAF TAF EDDH
Valid from the 06 at 12:00 until the 07 at 18:00 UTC


061100Z 0612/0718 22015KT 9999 BKN008
TEMPO 0612/0621 23020G30KT
TEMPO 0612/0708 2500 -RADZ
PROB30
TEMPO 0612/0708 BKN004
TEMPO 0621/0705 23015G25KT
BECMG 0702/0705 26010KT
PROB30
TEMPO 0705/0707 29015G30KT
BECMG 0707/0710 SCT012 BKN015
TEMPO 0710/0718 26015G25KT 4000 SHRA BKN012TCU



MET'MAP, your aeronautical weather chart ! - Copyright ORBIFLY December 2007 - Disclaimer

ORBIFLY MET'MAP TEAM :

Programming & Development : Alexandra Zaïnal
Concept & original design : Baudouin d'Aumeries
Assistance for programming : Marc-Olivier Méhu
Technical & hardware support : Manuel Goepfert

Contact : metmap@orbifly.com




SOURCES & CREDITS :

   NOAA